Paonia, CO

1:14 PM MDT on April 29, 2017 (GMT -0600)
Peony Moon - Town of Paonia | | Change Station
Active Advisory: Freeze Watch

Elev 5688 ft 38.87 °N, 107.59 °W | Updated 22 seconds ago

Overcast
Overcast
59.7 °F
Feels Like 59.7 °F
N
0.0
Wind Variable Wind from NW
Gusts 1.3 mph

Today
High -- | Low -- °F
--% Chance of Precip.
Yesterday
High -- | Low -- °F
Precip. -- in
Pressure 30.00 in
Visibility 10.0 miles
Clouds Scattered Clouds 8000 ft
Mostly Cloudy 9000 ft
Dew Point 38 °F
Humidity 44%
Rainfall 0.05 in
Snow Depth Not available.
6:14 AM 8:01 PM
Waxing Crescent, 15% visible
METAR KAJZ 291855Z AUTO 10006KT 10SM SCT080 BKN090 11/M05 A3000 RMK AO2 T01131052
Pressure 30.00 in
Visibility 10.0 miles
Clouds Scattered Clouds 8000 ft
Mostly Cloudy 9000 ft
Dew Point 38 °F
Humidity 44%
Rainfall 0.05 in
Snow Depth Not available.
6:14 AM 8:01 PM
Waxing Crescent, 15% visible
METAR KAJZ 291855Z AUTO 10006KT 10SM SCT080 BKN090 11/M05 A3000 RMK AO2 T01131052

Get Your Daily Forecast Email!

Thanks for signing up!

Be on the lookout for a verification email in your inbox.

You'll start receiving severe weather alerts in your inbox..

×

10-Day Weather Forecast

Almanac

Astronomy

Apr. 29, 2017 Rise Set
Actual Time
Civil Twilight
Nautical Twilight
Astronomical Twilight
Moon
Length of Visible Light
Length of Day
Tomorrow will be .
, % of the Moon is Illuminated

Today's Extremes

State Highs State Lows

Community

WunderPhotos

WunderBlog® & News

Nearby

Air Quality

  Air Quality AQ Index Pollutant
Not available.

Snow Depth

Station Depth Elevation

Earthquake Activity

City Distance Mag. Time & Date
Minimum magnitude displayed is 2.5.

Coastal Water Temperatures

Place Temperature

Stations

Nearby Weather Stations

Station Location Temp. Windchill Dew Point Humidity Wind Precip. Elev Updated Type
                   

Watches & Warnings

Freeze Watch
Issued: 8:52 AM MDT Apr. 29, 2017 – National Weather Service

... Freeze watch remains in effect from this evening through
Sunday morning...
... Freeze warning will expire at 9 am MDT this morning...

* locations include... Montrose, Hotchkiss, and Delta.

* Temperatures... temperatures warmed up to above freezing this
morning, but low temperatures of 25 to 30 degrees are expected
to return Sunday morning.

* Timing... the coldest temperatures will occur just before and
around sunrise Sunday.

* Impacts... budding vegetation may be negatively impacted as
temperatures drop below critical thresholds. Small, exposed
water lines, such as those associated with swamp coolers,
could freeze up.

Precautionary/preparedness actions...

A freeze watch means sub-freezing temperatures are possible.
These conditions could kill crops and other sensitive vegetation.